createdAt,value
2022-11-29T00:00:59.804Z,12.63
2022-11-29T00:03:27.769Z,12.62
2022-11-29T00:05:55.620Z,12.62
2022-11-29T00:08:23.194Z,12.62
2022-11-29T00:10:50.121Z,12.61
2022-11-29T00:13:17.987Z,12.59
2022-11-29T00:15:44.759Z,12.60
2022-11-29T00:18:11.434Z,12.59
2022-11-29T00:20:39.763Z,12.59
2022-11-29T00:23:06.656Z,12.59
2022-11-29T00:25:33.416Z,12.58
2022-11-29T00:28:00.141Z,12.58
2022-11-29T00:30:28.099Z,12.57
2022-11-29T00:32:54.951Z,12.57
2022-11-29T00:35:21.757Z,12.58
2022-11-29T00:37:48.419Z,12.57
2022-11-29T00:40:16.507Z,12.57
2022-11-29T00:42:43.197Z,12.56
2022-11-29T00:45:10.447Z,12.56
2022-11-29T00:47:37.144Z,12.54
2022-11-29T00:50:05.239Z,12.54
2022-11-29T00:52:31.976Z,12.54
2022-11-29T00:54:58.656Z,12.54
2022-11-29T00:57:25.492Z,12.53
2022-11-29T00:59:52.117Z,12.52
2022-11-29T01:02:18.887Z,12.51
2022-11-29T01:04:45.746Z,12.50
2022-11-29T01:07:12.678Z,12.49
2022-11-29T01:09:39.450Z,12.48
2022-11-29T01:12:06.474Z,12.46
2022-11-29T01:14:33.265Z,12.47
2022-11-29T01:17:00.211Z,12.46
2022-11-29T01:19:26.975Z,12.45
2022-11-29T01:21:53.742Z,12.43
2022-11-29T01:24:22.307Z,12.43
2022-11-29T01:26:49.073Z,12.41
2022-11-29T01:29:15.757Z,12.40
2022-11-29T01:31:42.547Z,12.40
2022-11-29T01:34:10.603Z,12.39
2022-11-29T01:36:37.364Z,12.37
2022-11-29T01:39:05.169Z,12.36
2022-11-29T01:41:33.679Z,12.35
2022-11-29T01:44:11.858Z,12.34
2022-11-29T01:46:41.384Z,12.33
2022-11-29T01:49:17.175Z,12.31
2022-11-29T01:51:49.810Z,12.29
2022-11-29T01:54:16.758Z,12.29
2022-11-29T01:56:44.950Z,12.28
2022-11-29T01:59:15.065Z,12.27
2022-11-29T02:01:42.212Z,12.28
2022-11-29T02:04:09.158Z,12.27
2022-11-29T02:06:38.978Z,12.25
2022-11-29T02:09:05.695Z,12.26
2022-11-29T02:11:41.140Z,12.25
2022-11-29T02:14:30.839Z,12.24
2022-11-29T02:17:07.050Z,12.25
2022-11-29T02:19:53.910Z,12.21
2022-11-29T02:22:22.528Z,12.23
2022-11-29T02:25:03.824Z,12.20
2022-11-29T02:27:33.759Z,12.21
2022-11-29T02:30:16.890Z,12.21
2022-11-29T02:32:46.365Z,12.19
2022-11-29T02:35:52.810Z,12.19
2022-11-29T02:38:25.469Z,12.18
2022-11-29T02:41:10.317Z,12.15
2022-11-29T02:43:42.877Z,12.15
2022-11-29T02:46:17.823Z,12.16
2022-11-29T02:49:18.720Z,12.16
2022-11-29T02:51:45.320Z,12.25
2022-11-29T02:54:21.121Z,12.18
2022-11-29T02:56:59.173Z,12.13
2022-11-29T03:00:01.974Z,12.13
2022-11-29T03:02:36.636Z,12.10
2022-11-29T03:05:35.435Z,12.09
2022-11-29T03:08:11.481Z,12.10
2022-11-29T03:11:07.327Z,12.10
2022-11-29T03:13:34.057Z,12.09
2022-11-29T03:16:15.541Z,12.08
2022-11-29T03:19:12.354Z,12.07
2022-11-29T03:21:39.014Z,12.09
2022-11-29T03:24:12.082Z,12.07
2022-11-29T03:26:46.130Z,12.07
2022-11-29T03:29:27.332Z,12.07
2022-11-29T03:32:17.665Z,12.07
2022-11-29T03:34:54.306Z,12.07
2022-11-29T03:37:44.120Z,12.06
2022-11-29T03:40:13.957Z,12.06
2022-11-29T03:42:55.048Z,12.06
2022-11-29T03:45:30.164Z,12.06
2022-11-29T03:48:02.535Z,12.04
2022-11-29T03:50:36.146Z,12.04
2022-11-29T03:53:12.889Z,12.04
2022-11-29T03:55:55.065Z,12.03
2022-11-29T03:58:57.174Z,12.02
2022-11-29T04:01:35.743Z,12.03
2022-11-29T04:04:36.594Z,12.02
2022-11-29T04:07:26.506Z,12.11
2022-11-29T04:10:04.318Z,12.03
2022-11-29T04:12:49.174Z,12.00
2022-11-29T04:15:39.578Z,11.98
2022-11-29T04:18:16.008Z,11.99
2022-11-29T04:21:15.918Z,11.99
2022-11-29T04:24:28.878Z,11.99
2022-11-29T04:27:33.581Z,11.99
2022-11-29T04:30:04.984Z,11.98
2022-11-29T04:33:16.765Z,11.97
2022-11-29T04:36:15.705Z,11.96
2022-11-29T04:38:45.336Z,11.91
2022-11-29T04:41:30.250Z,11.90
2022-11-29T04:44:12.327Z,11.90
2022-11-29T04:46:50.964Z,11.91
2022-11-29T04:50:05.515Z,11.93
2022-11-29T05:13:11.958Z,11.92
2022-11-29T05:16:06.495Z,11.92
2022-11-29T05:18:42.379Z,11.92
2022-11-29T05:21:15.585Z,11.92
2022-11-29T05:24:10.041Z,11.93
2022-11-29T05:27:01.072Z,11.95
2022-11-29T05:29:37.073Z,11.93
2022-11-29T05:32:25.533Z,11.92
2022-11-29T05:35:13.926Z,11.93
2022-11-29T05:37:49.585Z,11.92
2022-11-29T05:40:38.094Z,11.92
2022-11-29T05:43:35.434Z,11.92
2022-11-29T05:46:13.916Z,11.94
2022-11-29T05:48:57.278Z,11.93
2022-11-29T05:51:45.001Z,11.94
2022-11-29T05:54:37.571Z,11.92
2022-11-29T05:57:42.872Z,11.94
2022-11-29T06:00:12.238Z,11.94
2022-11-29T06:03:36.565Z,11.95
2022-11-29T06:06:10.300Z,11.93
2022-11-29T06:08:44.977Z,11.94
2022-11-29T06:11:24.610Z,11.95
2022-11-29T06:14:20.077Z,11.96
2022-11-29T06:16:56.950Z,11.95
2022-11-29T06:19:53.169Z,11.97
2022-11-29T06:22:22.533Z,11.97
2022-11-29T06:25:26.125Z,11.97
2022-11-29T06:28:13.426Z,11.97
2022-11-29T06:30:40.157Z,11.98
2022-11-29T06:33:23.093Z,11.93
2022-11-29T06:36:16.043Z,11.78
2022-11-29T06:38:44.203Z,11.62
2022-11-29T06:41:17.149Z,11.46
2022-11-29T06:43:44.525Z,11.37
2022-11-29T06:46:23.342Z,11.27
2022-11-29T06:49:02.377Z,11.17
2022-11-29T06:51:55.609Z,11.00
2022-11-29T06:54:28.422Z,10.92
2022-11-29T06:57:01.892Z,10.87
2022-11-29T06:59:39.254Z,10.86
2022-11-29T07:02:37.655Z,10.80
2022-11-29T07:05:33.473Z,10.80
2022-11-29T07:08:06.078Z,10.48
2022-11-29T07:10:37.793Z,10.38
2022-11-29T07:13:05.240Z,10.33
2022-11-29T07:15:32.380Z,10.22
2022-11-29T07:17:59.023Z,10.25
2022-11-29T07:20:48.669Z,10.33
2022-11-29T07:23:24.589Z,10.36
2022-11-29T07:26:00.518Z,10.36
2022-11-29T07:28:48.917Z,10.45
2022-11-29T07:31:29.381Z,10.49
2022-11-29T07:34:15.781Z,10.57
2022-11-29T07:37:14.145Z,10.62
2022-11-29T07:40:01.552Z,10.69
2022-11-29T07:42:28.209Z,10.72
2022-11-29T07:45:04.010Z,10.74
2022-11-29T07:47:35.592Z,10.78
2022-11-29T07:50:02.954Z,10.76
2022-11-29T07:52:29.630Z,10.74
2022-11-29T07:54:56.515Z,10.70
2022-11-29T07:57:23.241Z,10.75
2022-11-29T07:59:49.977Z,10.81
2022-11-29T08:02:27.529Z,10.89
2022-11-29T08:04:54.277Z,10.94
2022-11-29T08:07:21.435Z,10.98
2022-11-29T08:09:48.341Z,11.02
2022-11-29T08:12:15.545Z,11.06
2022-11-29T08:14:42.533Z,11.09
2022-11-29T08:17:09.624Z,11.12
2022-11-29T08:19:36.563Z,11.19
2022-11-29T08:22:03.655Z,11.25
2022-11-29T08:24:30.452Z,11.36
2022-11-29T08:26:57.104Z,11.43
2022-11-29T08:29:24.001Z,11.53
2022-11-29T08:31:53.616Z,11.58
2022-11-29T08:34:22.004Z,11.65
2022-11-29T08:36:49.371Z,11.69
2022-11-29T08:39:19.222Z,11.75
2022-11-29T08:41:49.878Z,11.81
2022-11-29T08:44:17.255Z,11.88
2022-11-29T08:47:02.455Z,11.98
2022-11-29T08:49:29.279Z,12.07
2022-11-29T08:52:15.895Z,12.13
2022-11-29T08:54:43.028Z,12.20
2022-11-29T08:57:38.584Z,12.24
2022-11-29T08:59:56.841Z,12.26
2022-11-29T09:02:23.513Z,12.31
2022-11-29T09:04:50.262Z,12.27
2022-11-29T09:07:17.038Z,12.19
2022-11-29T09:09:43.993Z,12.11
2022-11-29T09:12:10.675Z,12.08
2022-11-29T09:14:37.483Z,12.10
2022-11-29T09:17:04.206Z,12.11
2022-11-29T09:19:30.981Z,12.17
2022-11-29T09:21:57.681Z,12.03
2022-11-29T09:24:24.426Z,11.85
2022-11-29T09:26:51.194Z,11.87
2022-11-29T09:29:18.148Z,11.75
2022-11-29T09:31:47.806Z,11.66
2022-11-29T09:34:15.896Z,11.56
2022-11-29T09:36:45.980Z,11.58
2022-11-29T09:39:12.770Z,11.83
2022-11-29T09:41:54.568Z,12.03
2022-11-29T09:44:43.435Z,12.11
2022-11-29T09:47:33.094Z,12.15
2022-11-29T09:50:11.976Z,12.18
2022-11-29T09:53:06.910Z,12.26
2022-11-29T09:55:48.099Z,12.22
2022-11-29T09:58:23.431Z,12.10
2022-11-29T10:00:53.179Z,12.10
2022-11-29T10:03:44.751Z,12.06
2022-11-29T10:06:26.779Z,11.99
2022-11-29T10:09:08.309Z,11.99
2022-11-29T10:12:00.155Z,12.04
2022-11-29T10:14:34.001Z,12.06
2022-11-29T10:17:05.953Z,12.10
2022-11-29T10:19:54.311Z,12.15
2022-11-29T10:22:41.494Z,12.23
2022-11-29T10:25:10.655Z,12.27
2022-11-29T10:27:40.150Z,12.31
2022-11-29T10:30:13.542Z,12.36
2022-11-29T10:32:40.507Z,12.45
2022-11-29T10:35:13.590Z,12.48
2022-11-29T10:37:40.433Z,12.40
2022-11-29T10:40:16.038Z,12.39
2022-11-29T10:42:48.784Z,12.38
2022-11-29T10:45:26.086Z,12.36
2022-11-29T10:47:58.566Z,12.33
2022-11-29T10:50:27.656Z,12.29
2022-11-29T10:53:00.216Z,12.18
2022-11-29T10:55:28.079Z,12.12
2022-11-29T10:58:24.830Z,12.09
2022-11-29T11:00:57.686Z,12.06
2022-11-29T11:03:25.850Z,12.15
2022-11-29T11:06:00.453Z,12.20
2022-11-29T11:08:27.782Z,12.21
2022-11-29T11:11:01.161Z,12.17
2022-11-29T11:13:30.988Z,12.13
2022-11-29T11:16:14.205Z,12.14
2022-11-29T11:18:41.080Z,11.99
2022-11-29T11:21:10.549Z,11.71
2022-11-29T11:23:43.109Z,11.47
2022-11-29T11:26:14.068Z,11.40
2022-11-29T11:28:46.954Z,11.32
2022-11-29T11:31:14.027Z,11.33
2022-11-29T11:33:42.591Z,11.33
2022-11-29T11:36:35.723Z,11.43
2022-11-29T11:39:13.556Z,11.45
2022-11-29T11:42:02.501Z,11.61
2022-11-29T11:44:48.453Z,11.74
2022-11-29T11:47:20.274Z,11.79
2022-11-29T11:49:49.098Z,11.79
2022-11-29T11:52:26.165Z,11.79
2022-11-29T11:55:01.113Z,11.80
2022-11-29T11:57:28.871Z,11.76
2022-11-29T12:00:00.718Z,11.75
2022-11-29T12:02:40.632Z,11.77
2022-11-29T12:05:14.314Z,11.77
2022-11-29T12:08:07.501Z,11.90
2022-11-29T12:10:34.967Z,12.04
2022-11-29T12:13:02.417Z,12.09
2022-11-29T12:15:41.812Z,12.02
2022-11-29T12:18:14.827Z,12.01
2022-11-29T12:21:00.289Z,12.13
2022-11-29T12:23:52.798Z,12.09
2022-11-29T12:26:55.373Z,12.02
2022-11-29T12:29:19.909Z,12.05
2022-11-29T12:31:49.586Z,12.04
2022-11-29T12:34:47.088Z,12.06
2022-11-29T12:37:35.721Z,11.99
2022-11-29T12:40:09.449Z,11.88
2022-11-29T12:42:54.249Z,11.95
2022-11-29T12:45:30.397Z,11.89
2022-11-29T12:47:57.097Z,11.95
2022-11-29T12:50:37.169Z,11.94
2022-11-29T12:53:27.044Z,11.87
2022-11-29T12:56:05.478Z,11.66
2022-11-29T12:58:45.649Z,11.50
2022-11-29T13:01:36.075Z,11.40
2022-11-29T13:04:32.408Z,11.22
2022-11-29T13:07:10.988Z,11.13
2022-11-29T13:10:17.672Z,11.25
2022-11-29T13:12:52.791Z,11.45
2022-11-29T13:15:29.734Z,11.61
2022-11-29T13:18:09.674Z,11.87
2022-11-29T13:20:41.663Z,12.00
2022-11-29T13:23:46.092Z,12.01
2022-11-29T13:26:15.101Z,12.03
2022-11-29T13:28:43.069Z,11.98
2022-11-29T13:31:14.987Z,11.89
2022-11-29T13:34:07.694Z,11.78
2022-11-29T13:36:55.604Z,11.48
2022-11-29T13:39:34.138Z,11.32
2022-11-29T13:42:38.094Z,11.29
2022-11-29T13:45:34.020Z,11.26
2022-11-29T13:48:02.305Z,11.15
2022-11-29T13:50:42.472Z,11.12
2022-11-29T13:53:21.573Z,11.08
2022-11-29T13:56:01.799Z,11.05
2022-11-29T13:58:28.635Z,11.00
2022-11-29T14:01:15.741Z,11.01
2022-11-29T14:03:48.157Z,10.98
2022-11-29T14:06:21.154Z,10.92
2022-11-29T14:11:52.773Z,10.96
2022-11-29T14:14:25.175Z,11.01
2022-11-29T14:16:59.406Z,11.09
2022-11-29T14:19:36.478Z,11.20
2022-11-29T14:22:03.317Z,11.23
2022-11-29T14:24:35.911Z,11.22
2022-11-29T14:27:14.289Z,11.23
2022-11-29T14:29:53.934Z,11.22
2022-11-29T14:33:00.895Z,11.20
2022-11-29T14:35:27.622Z,11.07
2022-11-29T14:38:03.598Z,11.10
2022-11-29T14:40:44.851Z,11.15
2022-11-29T14:43:33.466Z,11.22
2022-11-29T14:46:15.769Z,11.23
2022-11-29T14:48:57.964Z,11.31
2022-11-29T14:51:27.070Z,11.40
2022-11-29T14:54:16.228Z,11.45
2022-11-29T14:56:45.500Z,11.51
2022-11-29T14:59:42.775Z,11.59
2022-11-29T15:02:27.079Z,11.51
2022-11-29T15:04:56.154Z,11.42
2022-11-29T15:07:32.872Z,11.34
2022-11-29T15:10:01.997Z,11.28
2022-11-29T15:12:38.171Z,11.33
2022-11-29T15:15:20.262Z,11.33
2022-11-29T15:18:05.210Z,11.23
2022-11-29T15:20:45.757Z,11.18
2022-11-29T15:23:18.474Z,11.17
2022-11-29T15:25:53.817Z,11.16
2022-11-29T15:28:26.121Z,11.18
2022-11-29T15:31:02.024Z,11.23
2022-11-29T15:33:29.337Z,11.22
2022-11-29T15:36:04.400Z,11.14
2022-11-29T15:38:41.946Z,11.07
2022-11-29T15:41:20.669Z,11.00
2022-11-29T15:43:52.475Z,10.90
2022-11-29T15:46:21.292Z,10.87
2022-11-29T15:48:48.062Z,10.81
2022-11-29T15:51:28.817Z,10.75
2022-11-29T15:54:12.091Z,10.74
2022-11-29T15:56:48.126Z,10.61
2022-11-29T15:59:21.067Z,10.57
2022-11-29T16:01:50.351Z,10.50
2022-11-29T16:04:19.201Z,10.49
2022-11-29T16:06:46.659Z,10.46
2022-11-29T16:09:17.972Z,10.47
2022-11-29T16:11:45.885Z,10.53
2022-11-29T16:14:22.740Z,10.56
2022-11-29T16:16:52.628Z,10.63
2022-11-29T16:19:31.222Z,10.74
2022-11-29T16:22:02.776Z,10.84
2022-11-29T16:24:29.633Z,10.89
2022-11-29T16:26:56.338Z,10.95
2022-11-29T16:29:38.653Z,11.04
2022-11-29T16:32:17.617Z,11.15
2022-11-29T16:34:44.933Z,11.25
2022-11-29T16:37:21.655Z,11.35
2022-11-29T16:39:51.210Z,11.43
2022-11-29T16:42:25.728Z,11.51
2022-11-29T16:45:27.850Z,11.59
2022-11-29T16:47:59.475Z,11.69
2022-11-29T16:50:28.173Z,11.73
2022-11-29T16:52:56.752Z,11.79
2022-11-29T16:55:24.122Z,11.86
2022-11-29T16:57:52.109Z,11.91
2022-11-29T17:00:33.465Z,11.95
2022-11-29T17:03:00.454Z,12.00
2022-11-29T17:05:27.512Z,12.03
2022-11-29T17:07:54.542Z,12.06
2022-11-29T17:10:24.510Z,12.11
2022-11-29T17:12:51.313Z,12.15
2022-11-29T17:15:18.101Z,12.17
2022-11-29T17:17:46.126Z,12.22
2022-11-29T17:20:13.388Z,12.24
2022-11-29T17:22:40.583Z,12.28
2022-11-29T17:25:07.733Z,12.30
2022-11-29T17:27:35.494Z,12.33
2022-11-29T17:30:03.480Z,12.35
2022-11-29T17:32:30.193Z,12.38
2022-11-29T17:34:56.879Z,12.41
2022-11-29T17:37:23.547Z,12.42
2022-11-29T17:39:50.277Z,12.45
2022-11-29T17:42:17.053Z,12.47
2022-11-29T17:44:43.869Z,12.49
2022-11-29T17:47:10.601Z,12.51
2022-11-29T17:49:37.392Z,12.54
2022-11-29T17:52:04.257Z,12.54
2022-11-29T17:54:33.135Z,12.57
2022-11-29T17:57:00.797Z,12.59
2022-11-29T17:59:27.690Z,12.61
2022-11-29T18:01:54.501Z,12.63
2022-11-29T18:04:21.558Z,12.64
2022-11-29T18:06:50.388Z,12.66
2022-11-29T18:09:18.116Z,12.66
2022-11-29T18:11:48.579Z,12.68
2022-11-29T18:14:22.992Z,12.69
2022-11-29T18:16:50.313Z,12.71
2022-11-29T18:19:18.994Z,12.71
2022-11-29T18:21:46.401Z,12.73
2022-11-29T18:24:13.073Z,12.74
2022-11-29T18:26:39.907Z,12.75
2022-11-29T18:29:07.373Z,12.76
2022-11-29T18:31:36.681Z,12.76
2022-11-29T18:34:13.049Z,12.77
2022-11-29T18:36:47.894Z,12.78
2022-11-29T18:39:16.852Z,12.78
2022-11-29T18:41:46.724Z,12.80
2022-11-29T18:44:15.601Z,12.81
2022-11-29T18:46:43.866Z,12.82
2022-11-29T18:49:14.953Z,12.82
2022-11-29T18:51:45.957Z,12.83
2022-11-29T18:54:16.364Z,12.86
2022-11-29T18:56:43.914Z,12.87
2022-11-29T18:59:13.713Z,12.87
2022-11-29T19:01:42.583Z,12.90
2022-11-29T19:04:12.292Z,12.90
2022-11-29T19:06:40.234Z,12.91
2022-11-29T19:09:11.389Z,12.91
2022-11-29T19:11:38.413Z,12.92
2022-11-29T19:14:13.323Z,12.92
2022-11-29T19:16:46.100Z,12.93
2022-11-29T19:19:13.108Z,12.95
2022-11-29T19:21:40.584Z,12.95
2022-11-29T19:24:13.888Z,12.95
2022-11-29T19:26:44.297Z,12.97
2022-11-29T19:29:12.313Z,12.98
2022-11-29T19:31:39.506Z,13.00
2022-11-29T19:34:06.724Z,12.99
2022-11-29T19:36:34.094Z,12.99
2022-11-29T19:39:02.644Z,12.99
2022-11-29T19:41:34.251Z,13.00
2022-11-29T19:44:09.648Z,13.00
2022-11-29T19:46:38.994Z,13.02
2022-11-29T19:49:07.069Z,13.01
2022-11-29T19:51:34.855Z,13.02
2022-11-29T19:54:04.319Z,13.01
2022-11-29T19:56:31.607Z,13.02
2022-11-29T19:58:59.916Z,13.02
2022-11-29T20:01:37.869Z,13.02
2022-11-29T20:04:07.553Z,13.03
2022-11-29T20:06:34.676Z,13.03
2022-11-29T20:09:04.413Z,13.02
2022-11-29T20:11:31.092Z,13.02
2022-11-29T20:14:00.328Z,13.02
2022-11-29T20:16:27.883Z,13.03
2022-11-29T20:18:54.981Z,13.04
2022-11-29T20:21:28.196Z,13.04
2022-11-29T20:24:14.532Z,13.05
2022-11-29T20:26:43.697Z,13.04
2022-11-29T20:29:11.750Z,13.04
2022-11-29T20:31:43.075Z,13.06
2022-11-29T20:34:14.111Z,13.06
2022-11-29T20:37:18.544Z,13.06
2022-11-29T20:39:59.831Z,13.05
2022-11-29T20:42:39.266Z,13.05
2022-11-29T20:45:08.793Z,13.05
2022-11-29T20:47:47.747Z,13.04
2022-11-29T20:50:27.090Z,13.04
2022-11-29T20:53:12.314Z,13.06
2022-11-29T20:55:44.878Z,13.06
2022-11-29T20:58:14.688Z,13.06
2022-11-29T21:00:42.270Z,13.07
2022-11-29T21:03:14.259Z,13.06
2022-11-29T21:05:42.380Z,13.08
2022-11-29T21:08:09.052Z,13.08
2022-11-29T21:10:35.850Z,13.08
2022-11-29T21:13:02.735Z,13.09
2022-11-29T21:15:29.792Z,13.09
2022-11-29T21:17:57.137Z,13.09
2022-11-29T21:20:26.402Z,13.08
2022-11-29T21:23:02.654Z,13.05
2022-11-29T21:25:48.133Z,13.05
2022-11-29T21:28:16.597Z,13.05
2022-11-29T21:30:44.692Z,13.05
2022-11-29T21:33:12.221Z,13.07
2022-11-29T21:35:39.913Z,13.07
2022-11-29T21:38:11.333Z,13.08
2022-11-29T21:40:39.674Z,13.08
2022-11-29T21:43:06.339Z,13.09
2022-11-29T21:45:33.122Z,13.08
2022-11-29T21:48:03.040Z,13.09
2022-11-29T21:50:29.789Z,13.09
2022-11-29T21:52:56.449Z,13.08
2022-11-29T21:55:23.160Z,13.06
2022-11-29T21:57:49.817Z,13.07
2022-11-29T22:00:17.061Z,13.07
2022-11-29T22:02:43.888Z,13.08
2022-11-29T22:05:10.827Z,13.07
2022-11-29T22:07:37.590Z,13.07
2022-11-29T22:10:11.598Z,13.07
2022-11-29T22:12:45.909Z,13.07
